createdAt,value
2022-12-29T00:01:37.481Z,34.67
2022-12-29T00:07:40.586Z,34.00
2022-12-29T00:14:01.808Z,33.00
2022-12-29T00:20:24.169Z,31.00
2022-12-29T00:26:45.007Z,34.00
2022-12-29T00:33:06.776Z,34.67
2022-12-29T00:39:35.160Z,36.00
2022-12-29T00:45:42.679Z,33.67
2022-12-29T00:51:44.941Z,34.00
2022-12-29T00:57:47.485Z,36.00
2022-12-29T01:03:49.631Z,35.33
2022-12-29T01:10:15.814Z,35.33
2022-12-29T01:16:17.940Z,37.00
2022-12-29T01:22:20.986Z,36.00
2022-12-29T01:28:26.372Z,36.00
2022-12-29T01:34:28.589Z,36.00
2022-12-29T01:40:31.229Z,36.67
2022-12-29T01:46:42.729Z,39.00
2022-12-29T01:52:53.823Z,36.67
2022-12-29T01:59:03.829Z,40.00
2022-12-29T02:05:12.654Z,39.67
2022-12-29T02:11:15.354Z,42.00
2022-12-29T02:17:29.396Z,43.00
2022-12-29T02:23:56.128Z,33.33
2022-12-29T02:30:31.622Z,37.00
2022-12-29T02:36:48.769Z,44.33
2022-12-29T02:43:04.286Z,45.33
2022-12-29T02:49:16.331Z,46.00
2022-12-29T02:55:20.008Z,42.00
2022-12-29T03:01:41.078Z,44.67
2022-12-29T03:07:57.914Z,43.00
2022-12-29T03:14:32.099Z,42.00
2022-12-29T03:20:50.794Z,42.00
2022-12-29T03:26:55.579Z,37.67
2022-12-29T03:33:03.679Z,45.00
2022-12-29T03:39:14.821Z,42.00
2022-12-29T03:45:19.804Z,40.00
2022-12-29T03:51:23.276Z,42.00
2022-12-29T03:57:27.596Z,42.00
2022-12-29T04:03:35.226Z,42.00
2022-12-29T04:09:37.960Z,39.67
2022-12-29T04:15:40.967Z,39.33
2022-12-29T04:21:43.471Z,40.00
2022-12-29T04:27:45.879Z,39.00
2022-12-29T04:34:10.161Z,39.00
2022-12-29T04:40:20.970Z,40.00
2022-12-29T04:46:23.668Z,40.67
2022-12-29T04:52:48.056Z,36.00
2022-12-29T04:58:50.339Z,37.33
2022-12-29T05:04:53.455Z,39.33
2022-12-29T05:10:56.825Z,42.00
2022-12-29T06:08:19.974Z,40.00
2022-12-29T06:14:23.987Z,42.00
2022-12-29T06:20:26.391Z,42.00
2022-12-29T06:26:32.273Z,43.00
2022-12-29T06:32:35.099Z,37.67
2022-12-29T06:38:40.689Z,39.00
2022-12-29T06:44:44.487Z,39.00
2022-12-29T06:50:46.885Z,43.00
2022-12-29T06:56:49.851Z,40.00
2022-12-29T07:02:52.654Z,34.00
2022-12-29T07:08:57.298Z,36.00
2022-12-29T07:15:01.130Z,39.00
2022-12-29T07:21:08.149Z,39.00
2022-12-29T07:27:10.708Z,36.33
2022-12-29T07:33:12.805Z,39.00
2022-12-29T07:39:14.902Z,33.00
2022-12-29T07:45:17.327Z,38.33
2022-12-29T07:51:24.413Z,34.00
2022-12-29T07:57:31.846Z,34.00
2022-12-29T08:03:34.550Z,35.33
2022-12-29T08:09:46.721Z,34.75
2022-12-29T08:15:54.774Z,36.00
2022-12-29T08:21:58.228Z,32.50
2022-12-29T08:28:05.455Z,34.25
2022-12-29T08:34:07.589Z,29.00
2022-12-29T08:40:12.965Z,29.00
2022-12-29T08:46:18.522Z,22.00
2022-12-29T08:52:20.649Z,15.75
2022-12-29T08:58:22.828Z,20.75
2022-12-29T09:04:26.693Z,17.75
2022-12-29T09:10:29.127Z,16.75
2022-12-29T09:16:32.354Z,17.00
2022-12-29T09:22:37.656Z,17.00
2022-12-29T09:28:41.431Z,20.50
2022-12-29T09:34:46.233Z,16.25
2022-12-29T09:41:06.569Z,14.00
2022-12-29T09:47:14.522Z,11.75
2022-12-29T09:53:42.290Z,14.50
2022-12-29T09:59:46.985Z,19.00
2022-12-29T10:06:01.344Z,16.75
2022-12-29T10:12:25.450Z,17.25
2022-12-29T10:19:04.770Z,15.00
2022-12-29T10:25:18.926Z,14.00
2022-12-29T10:31:24.704Z,16.00
2022-12-29T10:37:40.332Z,16.50
2022-12-29T10:43:52.569Z,16.25
2022-12-29T10:49:59.608Z,18.00
2022-12-29T10:56:03.334Z,15.50
2022-12-29T11:02:08.610Z,12.75
2022-12-29T11:08:23.915Z,13.00
2022-12-29T11:15:15.377Z,14.00
2022-12-29T11:28:41.778Z,15.50
2022-12-29T11:35:07.536Z,28.00
2022-12-29T11:41:15.881Z,17.00
2022-12-29T11:47:31.780Z,15.75
2022-12-29T11:53:51.479Z,12.50
2022-12-29T12:00:00.432Z,14.75
2022-12-29T12:06:03.808Z,13.75
2022-12-29T12:12:09.882Z,15.00
2022-12-29T12:18:22.800Z,20.00
2022-12-29T12:25:06.635Z,18.00
2022-12-29T12:31:20.278Z,16.50
2022-12-29T12:37:37.537Z,20.00
2022-12-29T12:43:49.660Z,18.00
2022-12-29T12:50:33.236Z,19.75
2022-12-29T12:56:45.243Z,18.75
2022-12-29T13:03:18.656Z,21.50
2022-12-29T13:09:46.708Z,21.00
2022-12-29T13:16:16.245Z,17.50
2022-12-29T13:23:06.386Z,14.50
2022-12-29T13:29:47.260Z,17.00
2022-12-29T13:36:18.240Z,15.75
2022-12-29T13:42:20.927Z,12.75
2022-12-29T13:48:36.428Z,8.25
2022-12-29T13:54:48.287Z,11.50
2022-12-29T14:00:57.347Z,14.00
2022-12-29T14:07:08.246Z,15.25
2022-12-29T14:13:18.441Z,15.50
2022-12-29T14:19:29.927Z,19.25
2022-12-29T14:26:10.337Z,17.75
2022-12-29T14:32:34.208Z,16.00
2022-12-29T14:38:47.609Z,14.75
2022-12-29T14:45:13.966Z,17.25
2022-12-29T14:51:34.318Z,18.25
2022-12-29T14:57:41.705Z,18.75
2022-12-29T15:03:52.693Z,21.50
2022-12-29T15:10:07.434Z,22.75
2022-12-29T15:16:38.062Z,25.75
2022-12-29T15:22:45.371Z,29.25
2022-12-29T15:28:49.596Z,29.00
2022-12-29T15:34:59.299Z,31.75
2022-12-29T15:41:06.975Z,32.00
2022-12-29T15:47:19.877Z,32.25
2022-12-29T15:53:33.395Z,33.00
2022-12-29T15:59:36.613Z,32.50
2022-12-29T16:05:42.284Z,38.25
2022-12-29T16:11:57.989Z,29.50
2022-12-29T16:18:02.740Z,33.00
2022-12-29T16:24:16.228Z,33.25
2022-12-29T16:30:26.422Z,35.00
2022-12-29T16:36:37.632Z,35.25
2022-12-29T16:42:39.978Z,31.75
2022-12-29T16:48:52.274Z,35.00
2022-12-29T16:55:01.128Z,31.50
2022-12-29T17:01:14.689Z,36.25
2022-12-29T17:07:27.575Z,32.75
2022-12-29T17:13:31.336Z,34.00
2022-12-29T17:19:40.356Z,34.00
2022-12-29T17:25:43.185Z,39.00
2022-12-29T17:31:45.385Z,38.00
2022-12-29T17:37:54.036Z,39.00
2022-12-29T17:43:58.871Z,40.00
2022-12-29T17:50:01.650Z,39.75
2022-12-29T17:56:07.046Z,39.25
2022-12-29T18:02:30.434Z,40.00
2022-12-29T18:08:35.559Z,39.75
2022-12-29T18:14:38.234Z,39.75
2022-12-29T18:20:43.280Z,42.75
2022-12-29T18:26:45.824Z,36.00
2022-12-29T18:32:48.955Z,40.00
2022-12-29T18:38:55.037Z,37.25
2022-12-29T18:44:57.163Z,34.75
2022-12-29T18:51:00.335Z,41.33
2022-12-29T18:57:03.989Z,35.00
2022-12-29T19:03:07.771Z,34.00
2022-12-29T19:09:09.987Z,38.00
2022-12-29T19:15:24.133Z,34.33
2022-12-29T19:21:27.182Z,35.00
2022-12-29T19:27:29.328Z,37.33
2022-12-29T19:33:31.782Z,39.00
2022-12-29T19:39:34.284Z,37.00
2022-12-29T19:45:40.599Z,38.50
2022-12-29T19:51:43.173Z,38.00
2022-12-29T19:57:46.087Z,34.50
2022-12-29T20:03:49.667Z,33.25
2022-12-29T20:09:52.259Z,33.00
2022-12-29T20:15:58.965Z,35.00
2022-12-29T20:22:02.482Z,35.00
2022-12-29T20:28:04.599Z,33.00
2022-12-29T20:34:10.103Z,37.00
2022-12-29T20:40:13.210Z,39.00
2022-12-29T20:46:21.300Z,39.25
2022-12-29T20:52:25.192Z,38.00
2022-12-29T20:58:32.985Z,40.25
2022-12-29T21:05:05.420Z,39.00
2022-12-29T21:11:00.282Z,41.00
2022-12-29T21:17:03.966Z,40.00
2022-12-29T21:23:06.833Z,38.33
2022-12-29T21:29:09.289Z,37.67
2022-12-29T21:35:11.858Z,38.00
2022-12-29T21:41:17.241Z,38.00
2022-12-29T21:47:19.403Z,36.75
2022-12-29T21:53:21.591Z,36.50
2022-12-29T21:59:42.284Z,38.50
2022-12-29T22:06:03.528Z,35.25
2022-12-29T22:12:26.159Z,38.25
2022-12-29T22:18:29.669Z,34.00
2022-12-29T22:24:33.626Z,36.25
2022-12-29T22:30:36.385Z,37.50
2022-12-29T22:36:38.559Z,36.25
2022-12-29T22:42:46.511Z,33.67
2022-12-29T22:48:48.623Z,35.00
2022-12-29T22:54:52.251Z,39.67
2022-12-29T23:00:54.479Z,39.33
2022-12-29T23:06:56.762Z,38.00
2022-12-29T23:12:58.953Z,40.67
2022-12-29T23:19:01.107Z,41.33
2022-12-29T23:25:03.777Z,36.67
2022-12-29T23:31:06.070Z,38.00
2022-12-29T23:37:09.619Z,36.75
2022-12-29T23:43:13.261Z,38.00
2022-12-29T23:49:17.116Z,38.00
2022-12-29T23:55:19.154Z,38.00
